createdAt,value
2022-08-31T00:00:14.398Z,20.98
2022-08-31T00:03:00.134Z,20.77
2022-08-31T00:05:28.153Z,20.77
2022-08-31T00:07:55.543Z,20.83
2022-08-31T00:10:32.793Z,20.76
2022-08-31T00:13:06.757Z,20.64
2022-08-31T00:15:35.579Z,20.45
2022-08-31T00:18:02.538Z,20.49
2022-08-31T00:20:33.493Z,20.46
2022-08-31T00:23:05.144Z,20.48
2022-08-31T00:25:33.638Z,20.47
2022-08-31T00:28:00.389Z,20.59
2022-08-31T00:30:27.295Z,20.57
2022-08-31T00:32:54.128Z,20.60
2022-08-31T00:35:24.184Z,20.67
2022-08-31T00:37:50.851Z,20.56
2022-08-31T00:40:17.677Z,20.47
2022-08-31T00:42:44.408Z,20.50
2022-08-31T00:45:11.271Z,20.35
2022-08-31T00:47:39.208Z,20.38
2022-08-31T00:50:09.827Z,20.38
2022-08-31T00:52:41.167Z,20.21
2022-08-31T00:55:17.922Z,20.10
2022-08-31T00:57:48.111Z,20.24
2022-08-31T01:00:19.884Z,20.40
2022-08-31T01:02:48.044Z,20.22
2022-08-31T01:05:16.211Z,20.15
2022-08-31T01:07:47.672Z,20.28
2022-08-31T01:10:19.312Z,20.30
2022-08-31T01:12:48.888Z,20.28
2022-08-31T01:15:18.191Z,20.24
2022-08-31T01:17:48.387Z,20.19
2022-08-31T01:20:30.322Z,20.20
2022-08-31T01:23:05.818Z,20.19
2022-08-31T01:25:36.157Z,20.23
2022-08-31T01:28:05.742Z,20.06
2022-08-31T01:30:33.057Z,20.04
2022-08-31T01:33:00.634Z,20.09
2022-08-31T01:35:28.773Z,20.08
2022-08-31T01:37:56.779Z,20.15
2022-08-31T01:40:44.272Z,20.06
2022-08-31T01:43:11.152Z,19.82
2022-08-31T01:45:38.074Z,19.92
2022-08-31T01:48:05.054Z,19.91
2022-08-31T01:50:31.874Z,19.74
2022-08-31T01:52:59.328Z,19.82
2022-08-31T01:55:26.119Z,19.83
2022-08-31T01:57:53.057Z,19.90
2022-08-31T02:00:22.842Z,19.86
2022-08-31T02:02:49.544Z,19.77
2022-08-31T02:05:17.040Z,19.74
2022-08-31T02:07:45.707Z,19.66
2022-08-31T02:10:13.359Z,19.66
2022-08-31T02:12:40.561Z,19.50
2022-08-31T02:15:09.207Z,19.55
2022-08-31T02:17:35.945Z,19.47
2022-08-31T02:20:09.978Z,19.41
2022-08-31T02:22:36.709Z,19.48
2022-08-31T02:25:05.471Z,19.68
2022-08-31T02:27:36.854Z,19.58
2022-08-31T02:30:12.123Z,19.62
2022-08-31T02:32:38.954Z,19.48
2022-08-31T02:35:06.269Z,19.25
2022-08-31T02:37:33.097Z,19.29
2022-08-31T02:40:02.529Z,19.38
2022-08-31T02:42:49.169Z,19.46
2022-08-31T02:45:18.525Z,19.48
2022-08-31T02:47:45.311Z,19.66
2022-08-31T02:50:23.500Z,19.59
2022-08-31T02:52:50.577Z,19.52
2022-08-31T02:55:17.892Z,19.48
2022-08-31T02:57:44.646Z,19.42
2022-08-31T03:00:12.812Z,19.40
2022-08-31T03:02:41.126Z,19.50
2022-08-31T03:05:08.774Z,19.42
2022-08-31T03:07:38.299Z,19.47
2022-08-31T03:10:08.299Z,19.46
2022-08-31T03:12:36.664Z,19.44
2022-08-31T03:15:06.565Z,19.43
2022-08-31T03:17:33.784Z,19.50
2022-08-31T03:20:02.745Z,19.49
2022-08-31T03:22:30.072Z,19.42
2022-08-31T03:24:57.190Z,19.19
2022-08-31T03:27:24.652Z,19.23
2022-08-31T03:29:52.527Z,19.16
2022-08-31T03:32:24.377Z,19.19
2022-08-31T03:34:57.053Z,19.24
2022-08-31T03:37:24.416Z,19.26
2022-08-31T03:39:53.623Z,19.32
2022-08-31T03:42:20.331Z,19.05
2022-08-31T03:44:47.962Z,19.14
2022-08-31T03:47:22.410Z,19.04
2022-08-31T03:49:50.264Z,19.10
2022-08-31T03:52:24.108Z,19.12
2022-08-31T03:55:02.952Z,19.15
2022-08-31T03:57:29.937Z,19.14
2022-08-31T03:59:57.611Z,18.90
2022-08-31T04:02:43.566Z,18.89
2022-08-31T04:05:31.221Z,18.88
2022-08-31T04:08:01.007Z,18.82
2022-08-31T04:10:48.981Z,18.88
2022-08-31T04:13:35.735Z,18.93
2022-08-31T04:16:22.095Z,18.96
2022-08-31T04:18:51.874Z,18.80
2022-08-31T04:21:22.837Z,18.82
2022-08-31T04:23:51.951Z,18.91
2022-08-31T04:26:34.206Z,18.73
2022-08-31T04:29:04.282Z,18.68
2022-08-31T04:31:31.241Z,18.84
2022-08-31T04:33:58.218Z,18.85
2022-08-31T04:36:26.854Z,18.83
2022-08-31T04:38:57.255Z,18.84
2022-08-31T04:41:27.149Z,18.79
2022-08-31T04:43:57.991Z,18.77
2022-08-31T04:46:26.356Z,18.64
2022-08-31T04:48:54.649Z,18.65
2022-08-31T04:51:24.690Z,18.60
2022-08-31T04:53:52.812Z,18.65
2022-08-31T04:56:23.417Z,18.74
2022-08-31T04:58:53.468Z,18.63
2022-08-31T05:01:24.230Z,18.57
2022-08-31T05:03:53.271Z,18.59
2022-08-31T05:06:23.318Z,18.52
2022-08-31T05:09:19.303Z,18.57
2022-08-31T05:11:50.404Z,18.57
2022-08-31T05:14:17.765Z,18.51
2022-08-31T05:16:51.476Z,18.53
2022-08-31T05:19:20.368Z,18.43
2022-08-31T05:21:48.319Z,18.45
2022-08-31T05:24:19.137Z,18.53
2022-08-31T05:26:48.970Z,18.40
2022-08-31T05:29:22.061Z,18.30
2022-08-31T05:31:52.570Z,18.28
2022-08-31T05:34:21.722Z,18.45
2022-08-31T05:36:56.212Z,18.26
2022-08-31T05:39:23.978Z,18.29
2022-08-31T05:41:50.944Z,18.42
2022-08-31T05:44:21.101Z,18.39
2022-08-31T05:46:52.483Z,18.37
2022-08-31T05:49:30.503Z,18.34
2022-08-31T05:52:00.146Z,18.46
2022-08-31T05:54:27.603Z,18.53
2022-08-31T05:56:54.556Z,18.52
2022-08-31T05:59:30.955Z,18.45
2022-08-31T06:01:59.110Z,18.47
2022-08-31T06:04:28.312Z,18.42
2022-08-31T06:06:55.490Z,18.38
2022-08-31T06:09:25.693Z,18.36
2022-08-31T06:11:54.132Z,18.35
2022-08-31T06:14:24.445Z,18.33
2022-08-31T06:16:56.157Z,18.31
2022-08-31T06:19:22.975Z,18.30
2022-08-31T06:21:51.255Z,18.21
2022-08-31T06:24:22.787Z,18.24
2022-08-31T06:26:57.973Z,18.31
2022-08-31T06:29:32.242Z,18.22
2022-08-31T06:32:00.701Z,18.25
2022-08-31T06:34:29.195Z,18.34
2022-08-31T06:36:59.043Z,18.37
2022-08-31T06:39:31.681Z,18.37
2022-08-31T06:42:30.795Z,18.43
2022-08-31T06:44:58.965Z,18.46
2022-08-31T06:47:43.028Z,18.46
2022-08-31T06:50:12.360Z,18.26
2022-08-31T06:52:39.685Z,18.27
2022-08-31T06:55:24.237Z,18.39
2022-08-31T06:58:09.209Z,18.25
2022-08-31T07:01:16.226Z,18.23
2022-08-31T07:04:10.891Z,18.29
2022-08-31T07:06:40.946Z,18.37
2022-08-31T07:09:10.267Z,18.38
2022-08-31T07:11:44.719Z,18.48
2022-08-31T07:15:27.879Z,18.56
2022-08-31T07:18:20.215Z,18.56
2022-08-31T07:20:47.192Z,18.50
2022-08-31T07:23:14.008Z,18.52
2022-08-31T07:25:49.924Z,18.47
2022-08-31T07:28:16.822Z,18.54
2022-08-31T07:30:44.739Z,18.62
2022-08-31T07:35:56.384Z,18.66
2022-08-31T07:39:05.233Z,18.58
2022-08-31T07:41:52.148Z,18.66
2022-08-31T07:44:20.357Z,18.75
2022-08-31T07:46:48.161Z,18.71
2022-08-31T07:49:17.113Z,18.71
2022-08-31T07:51:56.361Z,18.76
2022-08-31T07:54:46.553Z,18.81
2022-08-31T07:57:27.217Z,18.79
2022-08-31T08:00:08.531Z,18.80
2022-08-31T08:02:46.177Z,18.78
2022-08-31T08:05:27.330Z,18.89
2022-08-31T08:08:15.839Z,19.00
2022-08-31T08:11:06.574Z,19.06
2022-08-31T08:13:54.258Z,19.13
2022-08-31T08:16:28.566Z,19.29
2022-08-31T08:19:14.890Z,19.42
2022-08-31T08:21:43.409Z,19.39
2022-08-31T08:24:10.517Z,19.29
2022-08-31T08:27:05.551Z,19.37
2022-08-31T08:29:56.025Z,19.46
2022-08-31T08:32:27.564Z,19.46
2022-08-31T08:34:54.273Z,19.50
2022-08-31T08:37:35.724Z,19.57
2022-08-31T08:40:21.875Z,19.67
2022-08-31T08:42:48.821Z,19.63
2022-08-31T08:45:15.620Z,19.65
2022-08-31T08:47:43.063Z,19.71
2022-08-31T08:50:10.466Z,19.74
2022-08-31T08:52:46.823Z,19.87
2022-08-31T08:55:22.044Z,20.01
2022-08-31T08:57:52.060Z,20.06
2022-08-31T09:00:25.774Z,20.07
2022-08-31T09:03:21.831Z,20.16
2022-08-31T09:06:45.490Z,20.22
2022-08-31T09:09:37.641Z,20.32
2022-08-31T09:12:22.978Z,20.42
2022-08-31T09:15:08.097Z,20.33
2022-08-31T09:17:52.069Z,20.35
2022-08-31T09:20:19.032Z,20.44
2022-08-31T09:22:52.091Z,20.62
2022-08-31T09:25:33.190Z,20.70
2022-08-31T09:28:33.875Z,20.88
2022-08-31T09:31:00.733Z,20.84
2022-08-31T09:33:31.487Z,20.85
2022-08-31T09:36:18.283Z,20.77
2022-08-31T09:38:47.090Z,20.75
2022-08-31T09:41:29.072Z,20.84
2022-08-31T09:44:24.024Z,20.84
2022-08-31T09:46:56.528Z,21.00
2022-08-31T09:49:33.529Z,21.19
2022-08-31T09:52:51.595Z,21.35
2022-08-31T09:55:25.291Z,21.53
2022-08-31T09:57:56.319Z,21.74
2022-08-31T10:00:41.191Z,21.94
2022-08-31T10:03:23.471Z,22.08
2022-08-31T10:05:52.230Z,22.09
2022-08-31T10:08:47.153Z,22.06
2022-08-31T10:11:20.628Z,22.08
2022-08-31T10:14:00.238Z,22.20
2022-08-31T10:16:34.918Z,22.12
2022-08-31T10:19:09.824Z,22.09
2022-08-31T10:21:51.308Z,22.07
2022-08-31T10:24:34.597Z,22.01
2022-08-31T10:27:10.371Z,21.93
2022-08-31T10:29:40.214Z,21.85
2022-08-31T10:32:21.076Z,21.91
2022-08-31T10:35:07.635Z,21.89
2022-08-31T10:37:43.633Z,21.88
2022-08-31T10:40:16.466Z,21.82
2022-08-31T10:43:09.342Z,21.85
2022-08-31T10:45:42.717Z,22.11
2022-08-31T10:48:13.136Z,22.09
2022-08-31T10:50:51.460Z,22.27
2022-08-31T10:53:43.199Z,22.35
2022-08-31T10:56:39.672Z,22.28
2022-08-31T10:59:52.889Z,22.25
2022-08-31T11:02:45.123Z,22.22
2022-08-31T11:05:56.629Z,22.38
2022-08-31T11:09:01.881Z,22.34
2022-08-31T11:11:31.586Z,22.35
2022-08-31T11:14:27.114Z,22.42
2022-08-31T11:17:13.394Z,22.39
2022-08-31T11:19:55.547Z,22.30
2022-08-31T11:22:39.050Z,22.38
2022-08-31T11:25:31.688Z,22.31
2022-08-31T11:28:09.193Z,22.41
2022-08-31T11:30:44.669Z,22.41
2022-08-31T11:33:21.384Z,22.45
2022-08-31T11:36:06.127Z,22.45
2022-08-31T11:39:15.165Z,22.63
2022-08-31T11:41:46.796Z,22.55
2022-08-31T11:44:39.303Z,22.50
2022-08-31T11:47:44.284Z,22.60
2022-08-31T11:50:32.677Z,22.69
2022-08-31T11:53:16.410Z,22.71
2022-08-31T11:55:52.448Z,22.79
2022-08-31T11:58:25.843Z,22.66
2022-08-31T12:01:01.571Z,22.61
2022-08-31T12:03:39.130Z,22.60
2022-08-31T12:06:10.654Z,22.62
2022-08-31T12:08:54.512Z,22.67
2022-08-31T12:11:41.738Z,22.77
2022-08-31T12:14:31.117Z,22.72
2022-08-31T12:17:09.670Z,22.68
2022-08-31T12:20:01.362Z,22.67
2022-08-31T12:23:31.208Z,22.67
2022-08-31T12:26:29.331Z,22.69
2022-08-31T12:29:04.981Z,22.79
2022-08-31T12:31:37.258Z,22.88
2022-08-31T12:34:12.880Z,22.95
2022-08-31T12:36:40.110Z,23.23
2022-08-31T12:39:19.240Z,23.36
2022-08-31T12:41:52.835Z,23.30
2022-08-31T12:44:22.766Z,23.29
2022-08-31T12:47:23.608Z,23.25
2022-08-31T12:50:23.254Z,23.18
2022-08-31T12:53:19.171Z,23.06
2022-08-31T12:55:59.217Z,23.21
2022-08-31T12:58:52.098Z,23.29
2022-08-31T13:01:23.948Z,23.30
2022-08-31T13:03:55.078Z,23.25
2022-08-31T13:06:37.198Z,23.21
2022-08-31T13:09:05.744Z,23.15
2022-08-31T13:11:40.890Z,23.21
2022-08-31T13:14:20.570Z,23.30
2022-08-31T13:16:50.767Z,23.46
2022-08-31T13:19:32.782Z,23.52
2022-08-31T13:22:06.877Z,23.51
2022-08-31T13:24:42.322Z,23.45
2022-08-31T13:27:24.460Z,23.41
2022-08-31T13:29:53.357Z,23.33
2022-08-31T13:32:34.315Z,23.26
2022-08-31T13:35:04.301Z,23.29
2022-08-31T13:37:37.453Z,23.43
2022-08-31T13:40:12.404Z,23.53
2022-08-31T13:42:43.336Z,23.54
2022-08-31T13:45:30.163Z,23.53
2022-08-31T13:48:03.886Z,23.65
2022-08-31T13:50:35.982Z,23.68
2022-08-31T13:55:52.478Z,23.76
2022-08-31T13:58:31.178Z,23.83
2022-08-31T14:01:18.664Z,23.85
2022-08-31T14:03:57.037Z,23.92
2022-08-31T14:06:34.958Z,23.82
2022-08-31T14:09:16.591Z,23.79
2022-08-31T14:11:53.436Z,23.85
2022-08-31T14:14:35.567Z,23.85
2022-08-31T14:17:03.415Z,23.91
2022-08-31T14:19:32.360Z,24.02
2022-08-31T14:22:30.561Z,23.91
2022-08-31T14:25:00.345Z,23.92
2022-08-31T14:27:28.005Z,24.00
2022-08-31T14:29:55.053Z,23.97
2022-08-31T14:32:22.652Z,24.01
2022-08-31T14:34:50.981Z,24.07
2022-08-31T14:37:28.707Z,23.99
2022-08-31T14:40:05.628Z,23.94
2022-08-31T14:42:37.306Z,23.92
2022-08-31T14:45:05.689Z,24.09
2022-08-31T14:47:43.856Z,24.03
2022-08-31T14:50:13.653Z,24.09
2022-08-31T14:52:45.746Z,24.03
2022-08-31T14:55:14.747Z,23.93
2022-08-31T14:57:45.747Z,24.04
2022-08-31T15:00:22.904Z,24.01
2022-08-31T15:02:53.205Z,23.97
2022-08-31T15:05:23.285Z,23.93
2022-08-31T15:07:52.882Z,23.99
2022-08-31T15:10:22.221Z,23.96
2022-08-31T15:12:50.316Z,24.04
2022-08-31T15:15:20.246Z,24.06
2022-08-31T15:17:49.110Z,23.98
2022-08-31T15:20:18.251Z,24.05
2022-08-31T15:22:45.205Z,24.06
2022-08-31T15:25:12.813Z,24.10
2022-08-31T15:27:44.038Z,24.16
2022-08-31T15:30:12.579Z,24.17
2022-08-31T15:32:39.855Z,24.12
2022-08-31T15:35:07.865Z,24.12
2022-08-31T15:37:34.754Z,24.10
2022-08-31T15:40:04.472Z,24.11
2022-08-31T15:42:36.636Z,24.14
2022-08-31T15:45:04.159Z,24.09
2022-08-31T15:47:54.785Z,24.06
2022-08-31T15:50:26.997Z,24.09
2022-08-31T15:53:05.199Z,24.05
2022-08-31T15:55:36.208Z,24.04
2022-08-31T15:58:04.309Z,24.12
2022-08-31T16:00:32.531Z,24.11
2022-08-31T16:03:02.118Z,24.18
2022-08-31T16:05:38.709Z,24.04
2022-08-31T16:08:11.448Z,23.92
2022-08-31T16:10:46.225Z,23.94
2022-08-31T16:13:15.754Z,24.02
2022-08-31T16:15:51.088Z,24.11
2022-08-31T16:18:22.984Z,24.09
2022-08-31T16:20:50.454Z,24.13
2022-08-31T16:23:17.820Z,24.07
2022-08-31T16:25:48.426Z,24.10
2022-08-31T16:28:18.856Z,24.16
2022-08-31T16:30:45.615Z,24.07
2022-08-31T16:33:12.697Z,24.18
2022-08-31T16:35:39.754Z,24.29
2022-08-31T16:38:07.025Z,24.45
2022-08-31T16:40:35.541Z,24.47
2022-08-31T16:43:02.923Z,24.49
2022-08-31T16:45:29.968Z,24.59
2022-08-31T16:48:16.672Z,24.67
2022-08-31T16:50:47.503Z,24.53
2022-08-31T16:53:17.913Z,24.31
2022-08-31T16:55:47.255Z,24.45
2022-08-31T16:58:21.561Z,24.46
2022-08-31T17:01:12.922Z,24.39
2022-08-31T17:03:41.749Z,24.43
2022-08-31T17:06:08.642Z,24.43
2022-08-31T17:08:44.041Z,24.47
2022-08-31T17:11:21.072Z,24.35
2022-08-31T17:13:50.419Z,24.36
2022-08-31T17:16:21.148Z,24.31
2022-08-31T17:18:51.130Z,24.28
2022-08-31T17:21:21.049Z,24.29
2022-08-31T17:23:51.170Z,24.25
2022-08-31T17:26:21.435Z,24.23
2022-08-31T17:28:52.966Z,24.20
2022-08-31T17:31:20.306Z,24.23
2022-08-31T17:33:46.882Z,24.12
2022-08-31T17:36:15.979Z,24.11
2022-08-31T17:38:42.543Z,24.16
2022-08-31T17:41:09.710Z,24.12
2022-08-31T17:43:39.258Z,24.10
2022-08-31T17:46:08.664Z,23.95
2022-08-31T17:48:36.084Z,23.92
2022-08-31T17:51:06.098Z,23.78
2022-08-31T17:53:34.064Z,23.61
2022-08-31T17:56:01.266Z,23.69
2022-08-31T17:58:28.526Z,23.71
2022-08-31T18:00:56.008Z,23.68
2022-08-31T18:03:22.930Z,23.59
2022-08-31T18:05:49.620Z,23.54
2022-08-31T18:08:17.466Z,23.45
2022-08-31T18:10:52.023Z,23.26
2022-08-31T18:13:24.249Z,23.09
2022-08-31T18:15:51.270Z,23.06
2022-08-31T18:18:18.241Z,23.05
2022-08-31T18:20:45.387Z,22.94
2022-08-31T18:23:12.879Z,23.01
2022-08-31T18:25:40.801Z,22.98
2022-08-31T18:28:07.420Z,22.89
2022-08-31T18:30:37.413Z,22.58
2022-08-31T18:33:06.064Z,22.70
2022-08-31T18:35:32.655Z,22.44
2022-08-31T18:38:02.153Z,22.64
2022-08-31T18:40:47.249Z,22.64
2022-08-31T18:43:49.388Z,22.48
2022-08-31T18:46:16.276Z,22.35
2022-08-31T18:49:01.143Z,22.12
2022-08-31T18:51:40.662Z,22.24
2022-08-31T18:54:08.903Z,21.91
2022-08-31T18:56:36.431Z,21.86
2022-08-31T18:59:03.279Z,22.00
2022-08-31T19:01:33.804Z,21.90
2022-08-31T19:04:01.920Z,21.69
2022-08-31T19:06:30.883Z,21.75
2022-08-31T19:08:57.817Z,21.78
2022-08-31T19:11:25.083Z,21.52
2022-08-31T19:13:53.114Z,21.48
2022-08-31T19:16:26.757Z,21.68
2022-08-31T19:18:57.511Z,21.42
2022-08-31T19:21:30.219Z,21.32
2022-08-31T19:24:00.204Z,21.51
2022-08-31T19:26:31.411Z,21.48
2022-08-31T19:28:59.202Z,21.36
2022-08-31T19:31:27.677Z,21.21
2022-08-31T19:33:57.619Z,21.22
2022-08-31T19:36:24.564Z,21.17
2022-08-31T19:38:51.784Z,21.03
2022-08-31T19:41:25.620Z,20.96
2022-08-31T19:44:04.110Z,21.09
2022-08-31T19:46:34.315Z,21.23
2022-08-31T19:49:01.028Z,21.08
2022-08-31T19:51:29.636Z,21.26
2022-08-31T19:53:56.735Z,21.34
2022-08-31T19:56:30.330Z,21.39
2022-08-31T19:58:58.906Z,21.35
2022-08-31T20:01:33.801Z,21.39
2022-08-31T20:04:14.393Z,21.27
2022-08-31T20:06:45.278Z,21.36
2022-08-31T20:09:12.986Z,21.35
2022-08-31T20:11:40.252Z,21.52
2022-08-31T20:14:07.500Z,21.53
2022-08-31T20:16:41.454Z,21.57
2022-08-31T20:19:11.089Z,21.49
2022-08-31T20:21:40.482Z,21.56
2022-08-31T20:24:10.285Z,21.62
2022-08-31T20:26:43.586Z,21.67
2022-08-31T20:29:16.041Z,21.67
2022-08-31T20:31:45.458Z,21.44
2022-08-31T20:34:19.319Z,21.23
2022-08-31T20:36:48.183Z,21.17
2022-08-31T20:39:16.496Z,21.24
2022-08-31T20:41:47.242Z,21.39
2022-08-31T20:44:21.311Z,21.36
2022-08-31T20:47:09.767Z,21.43
2022-08-31T20:49:39.876Z,21.45
2022-08-31T20:52:07.235Z,21.30
2022-08-31T20:54:34.821Z,21.22
2022-08-31T20:57:05.822Z,21.19
2022-08-31T20:59:33.566Z,21.18
2022-08-31T21:02:03.216Z,21.13
2022-08-31T21:04:32.509Z,21.20
2022-08-31T21:07:01.026Z,21.10
2022-08-31T21:09:28.725Z,21.07
2022-08-31T21:11:58.211Z,20.88
2022-08-31T21:14:27.547Z,20.90
2022-08-31T21:16:55.620Z,20.95
2022-08-31T21:19:23.315Z,20.90
2022-08-31T21:21:56.074Z,20.84
2022-08-31T21:24:22.998Z,20.82
2022-08-31T21:26:59.256Z,20.72
2022-08-31T21:29:30.312Z,20.68
2022-08-31T21:32:03.254Z,20.73
2022-08-31T21:34:31.002Z,20.78
2022-08-31T21:36:57.684Z,20.51
2022-08-31T21:39:24.847Z,20.63
2022-08-31T21:41:51.986Z,20.51
2022-08-31T21:44:22.965Z,20.31
2022-08-31T21:46:50.889Z,20.40
2022-08-31T21:49:18.986Z,20.40
2022-08-31T21:51:55.075Z,20.52
2022-08-31T21:54:24.574Z,20.23
2022-08-31T21:56:57.249Z,20.20
2022-08-31T21:59:26.838Z,20.15
2022-08-31T22:01:58.924Z,20.00
2022-08-31T22:04:28.201Z,19.91
2022-08-31T22:06:55.877Z,19.83
2022-08-31T22:09:23.864Z,19.78
2022-08-31T22:11:54.755Z,19.66
2022-08-31T22:14:26.194Z,19.99
2022-08-31T22:16:54.204Z,20.06
2022-08-31T22:19:25.654Z,20.13
2022-08-31T22:21:55.451Z,20.16
2022-08-31T22:24:27.782Z,20.17
2022-08-31T22:26:58.087Z,19.98
2022-08-31T22:29:27.438Z,19.97
2022-08-31T22:31:58.139Z,19.94
2022-08-31T22:34:25.666Z,20.01
2022-08-31T22:36:53.711Z,19.99
2022-08-31T22:39:26.535Z,19.90
2022-08-31T22:41:53.937Z,19.80
2022-08-31T22:44:26.684Z,19.60
2022-08-31T22:46:56.109Z,19.92
2022-08-31T22:49:23.207Z,20.06
2022-08-31T22:51:49.897Z,20.04
2022-08-31T22:54:19.168Z,20.00
2022-08-31T22:56:46.352Z,19.98
2022-08-31T22:59:17.866Z,19.94
2022-08-31T23:01:52.030Z,19.74
2022-08-31T23:04:20.179Z,19.86
2022-08-31T23:06:48.821Z,19.79
2022-08-31T23:09:19.396Z,19.69
2022-08-31T23:11:46.595Z,19.70
2022-08-31T23:14:13.197Z,19.82
2022-08-31T23:16:45.344Z,19.90
2022-08-31T23:19:21.651Z,19.86
2022-08-31T23:21:52.728Z,19.99
2022-08-31T23:24:30.073Z,19.98
2022-08-31T23:27:03.941Z,19.99
2022-08-31T23:29:34.928Z,19.75
2022-08-31T23:32:02.805Z,19.71
2022-08-31T23:34:29.542Z,19.77
2022-08-31T23:36:57.016Z,19.75
2022-08-31T23:39:25.073Z,19.62
2022-08-31T23:41:53.239Z,19.58
2022-08-31T23:44:20.780Z,19.66
2022-08-31T23:46:48.194Z,19.62
2022-08-31T23:49:16.666Z,19.58
2022-08-31T23:51:44.044Z,19.83
2022-08-31T23:54:12.442Z,19.93
2022-08-31T23:56:42.456Z,20.01
2022-08-31T23:59:28.737Z,20.04
